sensor_id;sensor_type;location;lat;lon;timestamp;temperature;humidity
61591;DHT22;71994;52.410;-1.966;2023-10-08T00:00:04;18.90;64.00
61591;DHT22;71994;52.410;-1.966;2023-10-08T00:03:23;18.90;64.00
61591;DHT22;71994;52.410;-1.966;2023-10-08T00:06:32;18.80;63.90
61591;DHT22;71994;52.410;-1.966;2023-10-08T00:09:43;18.90;63.90
61591;DHT22;71994;52.410;-1.966;2023-10-08T00:12:50;18.80;63.90
61591;DHT22;71994;52.410;-1.966;2023-10-08T00:15:58;18.80;64.00
61591;DHT22;71994;52.410;-1.966;2023-10-08T00:19:05;18.80;63.90
61591;DHT22;71994;52.410;-1.966;2023-10-08T00:22:15;18.80;63.80
61591;DHT22;71994;52.410;-1.966;2023-10-08T00:25:27;18.80;64.00
61591;DHT22;71994;52.410;-1.966;2023-10-08T00:28:34;18.80;63.80
61591;DHT22;71994;52.410;-1.966;2023-10-08T00:31:40;18.80;63.70
61591;DHT22;71994;52.410;-1.966;2023-10-08T00:34:48;18.80;63.80
61591;DHT22;71994;52.410;-1.966;2023-10-08T00:37:54;18.80;63.90
61591;DHT22;71994;52.410;-1.966;2023-10-08T00:41:06;18.80;63.90
61591;DHT22;71994;52.410;-1.966;2023-10-08T00:44:16;18.70;64.20
61591;DHT22;71994;52.410;-1.966;2023-10-08T00:47:26;18.70;64.10
61591;DHT22;71994;52.410;-1.966;2023-10-08T00:50:37;18.70;64.00
61591;DHT22;71994;52.410;-1.966;2023-10-08T00:53:52;18.70;63.90
61591;DHT22;71994;52.410;-1.966;2023-10-08T00:57:04;18.70;63.90
61591;DHT22;71994;52.410;-1.966;2023-10-08T01:00:14;18.70;63.90
61591;DHT22;71994;52.410;-1.966;2023-10-08T01:03:25;18.70;64.10
61591;DHT22;71994;52.410;-1.966;2023-10-08T01:06:32;18.70;63.70
61591;DHT22;71994;52.410;-1.966;2023-10-08T01:09:43;18.70;63.70
61591;DHT22;71994;52.410;-1.966;2023-10-08T01:12:56;18.70;63.40
61591;DHT22;71994;52.410;-1.966;2023-10-08T01:16:16;18.70;63.20
61591;DHT22;71994;52.410;-1.966;2023-10-08T01:19:23;18.60;63.40
61591;DHT22;71994;52.410;-1.966;2023-10-08T01:22:34;18.70;63.30
61591;DHT22;71994;52.410;-1.966;2023-10-08T01:25:42;18.60;63.20
61591;DHT22;71994;52.410;-1.966;2023-10-08T01:28:53;18.60;63.10
61591;DHT22;71994;52.410;-1.966;2023-10-08T01:32:00;18.60;63.10
61591;DHT22;71994;52.410;-1.966;2023-10-08T01:35:08;18.70;63.10
61591;DHT22;71994;52.410;-1.966;2023-10-08T01:38:28;18.60;62.90
61591;DHT22;71994;52.410;-1.966;2023-10-08T01:41:35;18.60;63.00
61591;DHT22;71994;52.410;-1.966;2023-10-08T01:44:44;18.60;62.90
61591;DHT22;71994;52.410;-1.966;2023-10-08T01:47:53;18.60;63.20
61591;DHT22;71994;52.410;-1.966;2023-10-08T01:51:00;18.60;63.00
61591;DHT22;71994;52.410;-1.966;2023-10-08T01:54:14;18.60;63.10
61591;DHT22;71994;52.410;-1.966;2023-10-08T01:57:24;18.60;63.00
61591;DHT22;71994;52.410;-1.966;2023-10-08T02:00:30;18.60;63.00
61591;DHT22;71994;52.410;-1.966;2023-10-08T02:03:37;18.60;63.10
61591;DHT22;71994;52.410;-1.966;2023-10-08T02:06:44;18.60;63.10
61591;DHT22;71994;52.410;-1.966;2023-10-08T02:09:54;18.60;63.40
61591;DHT22;71994;52.410;-1.966;2023-10-08T02:13:03;18.60;63.30
61591;DHT22;71994;52.410;-1.966;2023-10-08T02:16:11;18.60;63.30
61591;DHT22;71994;52.410;-1.966;2023-10-08T02:19:17;18.60;63.70
61591;DHT22;71994;52.410;-1.966;2023-10-08T02:22:30;18.60;63.20
61591;DHT22;71994;52.410;-1.966;2023-10-08T02:25:39;18.60;63.20
61591;DHT22;71994;52.410;-1.966;2023-10-08T02:28:48;18.60;63.30
61591;DHT22;71994;52.410;-1.966;2023-10-08T02:31:55;18.50;63.30
61591;DHT22;71994;52.410;-1.966;2023-10-08T02:35:02;18.60;63.20
61591;DHT22;71994;52.410;-1.966;2023-10-08T02:38:09;18.60;63.10
61591;DHT22;71994;52.410;-1.966;2023-10-08T02:41:19;18.60;63.30
61591;DHT22;71994;52.410;-1.966;2023-10-08T02:44:28;18.60;63.10
61591;DHT22;71994;52.410;-1.966;2023-10-08T02:47:38;18.60;62.90
61591;DHT22;71994;52.410;-1.966;2023-10-08T02:50:44;18.60;62.70
61591;DHT22;71994;52.410;-1.966;2023-10-08T02:53:51;18.60;62.80
61591;DHT22;71994;52.410;-1.966;2023-10-08T02:57:01;18.50;62.70
61591;DHT22;71994;52.410;-1.966;2023-10-08T03:00:15;18.60;62.70
61591;DHT22;71994;52.410;-1.966;2023-10-08T03:03:23;18.50;62.60
61591;DHT22;71994;52.410;-1.966;2023-10-08T03:06:31;18.50;62.50
61591;DHT22;71994;52.410;-1.966;2023-10-08T03:09:39;18.50;62.50
61591;DHT22;71994;52.410;-1.966;2023-10-08T03:12:52;18.50;62.50
61591;DHT22;71994;52.410;-1.966;2023-10-08T03:15:59;18.50;62.90
61591;DHT22;71994;52.410;-1.966;2023-10-08T03:19:14;18.50;62.60
61591;DHT22;71994;52.410;-1.966;2023-10-08T03:22:22;18.50;62.90
61591;DHT22;71994;52.410;-1.966;2023-10-08T03:25:35;18.50;62.60
61591;DHT22;71994;52.410;-1.966;2023-10-08T03:28:47;18.40;62.80
61591;DHT22;71994;52.410;-1.966;2023-10-08T03:32:00;18.40;62.90
61591;DHT22;71994;52.410;-1.966;2023-10-08T03:35:09;18.40;62.80
61591;DHT22;71994;52.410;-1.966;2023-10-08T03:38:15;18.40;63.00
61591;DHT22;71994;52.410;-1.966;2023-10-08T03:41:31;18.40;63.00
61591;DHT22;71994;52.410;-1.966;2023-10-08T03:44:48;18.40;63.20
61591;DHT22;71994;52.410;-1.966;2023-10-08T03:47:55;18.40;63.30
61591;DHT22;71994;52.410;-1.966;2023-10-08T03:51:08;18.30;63.00
61591;DHT22;71994;52.410;-1.966;2023-10-08T03:54:15;18.30;62.90
61591;DHT22;71994;52.410;-1.966;2023-10-08T03:57:22;18.30;62.70
61591;DHT22;71994;52.410;-1.966;2023-10-08T04:00:47;18.30;63.10
61591;DHT22;71994;52.410;-1.966;2023-10-08T04:03:57;18.30;63.10
61591;DHT22;71994;52.410;-1.966;2023-10-08T04:07:04;18.30;62.80
61591;DHT22;71994;52.410;-1.966;2023-10-08T04:10:22;18.30;62.40
61591;DHT22;71994;52.410;-1.966;2023-10-08T04:13:52;18.30;62.60
61591;DHT22;71994;52.410;-1.966;2023-10-08T04:17:05;18.20;62.70
61591;DHT22;71994;52.410;-1.966;2023-10-08T04:20:14;18.20;62.90
61591;DHT22;71994;52.410;-1.966;2023-10-08T04:23:33;18.20;62.60
61591;DHT22;71994;52.410;-1.966;2023-10-08T04:26:41;18.20;62.30
61591;DHT22;71994;52.410;-1.966;2023-10-08T04:29:47;18.20;62.30
61591;DHT22;71994;52.410;-1.966;2023-10-08T04:32:56;18.20;62.50
61591;DHT22;71994;52.410;-1.966;2023-10-08T04:36:09;18.20;62.40
61591;DHT22;71994;52.410;-1.966;2023-10-08T04:39:21;18.20;62.60
61591;DHT22;71994;52.410;-1.966;2023-10-08T04:42:34;18.10;62.50
61591;DHT22;71994;52.410;-1.966;2023-10-08T04:45:41;18.20;62.60
61591;DHT22;71994;52.410;-1.966;2023-10-08T04:48:52;18.20;62.40
61591;DHT22;71994;52.410;-1.966;2023-10-08T04:52:01;18.20;62.00
61591;DHT22;71994;52.410;-1.966;2023-10-08T04:55:17;18.10;62.00
61591;DHT22;71994;52.410;-1.966;2023-10-08T04:58:31;18.10;62.70
61591;DHT22;71994;52.410;-1.966;2023-10-08T05:01:43;18.10;62.70
61591;DHT22;71994;52.410;-1.966;2023-10-08T05:05:16;18.10;62.50
61591;DHT22;71994;52.410;-1.966;2023-10-08T05:08:41;18.10;62.20
61591;DHT22;71994;52.410;-1.966;2023-10-08T05:12:01;18.10;62.60
61591;DHT22;71994;52.410;-1.966;2023-10-08T05:15:32;18.10;64.20
61591;DHT22;71994;52.410;-1.966;2023-10-08T05:18:45;18.10;62.80
61591;DHT22;71994;52.410;-1.966;2023-10-08T05:22:15;18.10;64.30
61591;DHT22;71994;52.410;-1.966;2023-10-08T05:25:43;18.10;62.90
61591;DHT22;71994;52.410;-1.966;2023-10-08T05:29:02;18.10;63.10
61591;DHT22;71994;52.410;-1.966;2023-10-08T05:32:26;18.10;62.60
61591;DHT22;71994;52.410;-1.966;2023-10-08T05:35:54;18.10;63.30
61591;DHT22;71994;52.410;-1.966;2023-10-08T05:39:08;18.10;62.40
61591;DHT22;71994;52.410;-1.966;2023-10-08T05:42:32;18.10;62.70
61591;DHT22;71994;52.410;-1.966;2023-10-08T05:45:49;18.10;63.00
61591;DHT22;71994;52.410;-1.966;2023-10-08T05:49:16;18.10;62.20
61591;DHT22;71994;52.410;-1.966;2023-10-08T05:52:38;18.10;62.50
61591;DHT22;71994;52.410;-1.966;2023-10-08T05:56:04;18.10;61.90
61591;DHT22;71994;52.410;-1.966;2023-10-08T05:59:30;18.10;62.80
61591;DHT22;71994;52.410;-1.966;2023-10-08T06:02:43;18.00;62.70
61591;DHT22;71994;52.410;-1.966;2023-10-08T06:06:05;18.10;62.60
61591;DHT22;71994;52.410;-1.966;2023-10-08T06:09:40;18.10;62.40
61591;DHT22;71994;52.410;-1.966;2023-10-08T06:12:57;18.10;62.10
61591;DHT22;71994;52.410;-1.966;2023-10-08T06:16:05;18.10;62.50
61591;DHT22;71994;52.410;-1.966;2023-10-08T06:19:11;18.10;63.70
61591;DHT22;71994;52.410;-1.966;2023-10-08T06:22:15;18.10;63.10
61591;DHT22;71994;52.410;-1.966;2023-10-08T06:25:26;18.10;63.00
61591;DHT22;71994;52.410;-1.966;2023-10-08T06:28:37;18.00;62.30
61591;DHT22;71994;52.410;-1.966;2023-10-08T06:31:45;18.00;62.70
61591;DHT22;71994;52.410;-1.966;2023-10-08T06:34:54;18.00;63.50
61591;DHT22;71994;52.410;-1.966;2023-10-08T06:38:01;18.00;63.60
61591;DHT22;71994;52.410;-1.966;2023-10-08T06:41:11;18.00;64.20
61591;DHT22;71994;52.410;-1.966;2023-10-08T06:44:23;18.00;64.30
61591;DHT22;71994;52.410;-1.966;2023-10-08T06:47:30;18.00;64.20
61591;DHT22;71994;52.410;-1.966;2023-10-08T06:50:37;18.00;64.50
61591;DHT22;71994;52.410;-1.966;2023-10-08T06:53:45;18.00;64.40
61591;DHT22;71994;52.410;-1.966;2023-10-08T06:56:51;18.00;63.70
61591;DHT22;71994;52.410;-1.966;2023-10-08T07:00:01;18.00;63.60
61591;DHT22;71994;52.410;-1.966;2023-10-08T07:03:14;18.10;63.40
61591;DHT22;71994;52.410;-1.966;2023-10-08T07:06:23;18.10;63.20
61591;DHT22;71994;52.410;-1.966;2023-10-08T07:09:34;18.10;63.10
61591;DHT22;71994;52.410;-1.966;2023-10-08T07:12:42;18.10;63.00
61591;DHT22;71994;52.410;-1.966;2023-10-08T07:15:55;18.20;62.80
61591;DHT22;71994;52.410;-1.966;2023-10-08T07:19:03;18.20;62.70
61591;DHT22;71994;52.410;-1.966;2023-10-08T07:22:20;18.30;62.60
61591;DHT22;71994;52.410;-1.966;2023-10-08T07:25:31;18.30;62.40
61591;DHT22;71994;52.410;-1.966;2023-10-08T07:28:41;18.40;62.40
61591;DHT22;71994;52.410;-1.966;2023-10-08T07:31:50;18.40;62.30
61591;DHT22;71994;52.410;-1.966;2023-10-08T07:34:56;18.40;62.20
61591;DHT22;71994;52.410;-1.966;2023-10-08T07:38:18;18.40;62.20
61591;DHT22;71994;52.410;-1.966;2023-10-08T07:41:25;18.50;62.10
61591;DHT22;71994;52.410;-1.966;2023-10-08T07:44:33;18.40;62.10
61591;DHT22;71994;52.410;-1.966;2023-10-08T07:47:47;18.50;62.10
61591;DHT22;71994;52.410;-1.966;2023-10-08T07:50:56;18.50;62.10
61591;DHT22;71994;52.410;-1.966;2023-10-08T07:54:03;18.50;62.20
61591;DHT22;71994;52.410;-1.966;2023-10-08T07:57:12;18.50;62.20
61591;DHT22;71994;52.410;-1.966;2023-10-08T08:00:22;18.50;62.20
61591;DHT22;71994;52.410;-1.966;2023-10-08T08:03:39;18.60;62.20
61591;DHT22;71994;52.410;-1.966;2023-10-08T08:06:48;18.50;62.20
61591;DHT22;71994;52.410;-1.966;2023-10-08T08:09:56;18.60;62.30
61591;DHT22;71994;52.410;-1.966;2023-10-08T08:13:06;18.60;62.30
61591;DHT22;71994;52.410;-1.966;2023-10-08T08:16:15;18.60;62.30
61591;DHT22;71994;52.410;-1.966;2023-10-08T08:19:29;18.60;62.20
61591;DHT22;71994;52.410;-1.966;2023-10-08T08:22:35;18.60;62.10
61591;DHT22;71994;52.410;-1.966;2023-10-08T08:25:44;18.60;62.10
61591;DHT22;71994;52.410;-1.966;2023-10-08T08:29:09;18.60;61.80
61591;DHT22;71994;52.410;-1.966;2023-10-08T08:32:18;18.60;62.10
61591;DHT22;71994;52.410;-1.966;2023-10-08T08:35:30;18.60;62.10
61591;DHT22;71994;52.410;-1.966;2023-10-08T08:38:36;18.60;62.20
61591;DHT22;71994;52.410;-1.966;2023-10-08T08:41:42;18.60;62.10
61591;DHT22;71994;52.410;-1.966;2023-10-08T08:44:50;18.60;62.00
61591;DHT22;71994;52.410;-1.966;2023-10-08T08:47:58;18.60;61.90
61591;DHT22;71994;52.410;-1.966;2023-10-08T08:51:07;18.60;61.90
61591;DHT22;71994;52.410;-1.966;2023-10-08T08:54:15;18.60;62.00
61591;DHT22;71994;52.410;-1.966;2023-10-08T08:57:22;18.70;61.90
61591;DHT22;71994;52.410;-1.966;2023-10-08T09:00:41;18.70;61.90
61591;DHT22;71994;52.410;-1.966;2023-10-08T09:03:58;18.70;61.80
61591;DHT22;71994;52.410;-1.966;2023-10-08T09:07:07;18.70;61.80
61591;DHT22;71994;52.410;-1.966;2023-10-08T09:10:15;18.60;62.00
61591;DHT22;71994;52.410;-1.966;2023-10-08T09:13:22;18.70;61.90
61591;DHT22;71994;52.410;-1.966;2023-10-08T09:16:28;18.70;62.00
61591;DHT22;71994;52.410;-1.966;2023-10-08T09:19:38;18.70;61.90
61591;DHT22;71994;52.410;-1.966;2023-10-08T09:23:05;18.70;61.90
61591;DHT22;71994;52.410;-1.966;2023-10-08T09:26:16;18.70;61.90
61591;DHT22;71994;52.410;-1.966;2023-10-08T09:29:23;18.60;62.00
61591;DHT22;71994;52.410;-1.966;2023-10-08T09:32:30;18.60;62.10
61591;DHT22;71994;52.410;-1.966;2023-10-08T09:35:37;18.60;62.10
61591;DHT22;71994;52.410;-1.966;2023-10-08T09:38:46;18.60;62.10
61591;DHT22;71994;52.410;-1.966;2023-10-08T09:41:55;18.60;62.10
61591;DHT22;71994;52.410;-1.966;2023-10-08T09:45:01;18.60;62.20
61591;DHT22;71994;52.410;-1.966;2023-10-08T09:48:11;18.60;62.20
61591;DHT22;71994;52.410;-1.966;2023-10-08T09:51:18;18.60;62.30
61591;DHT22;71994;52.410;-1.966;2023-10-08T09:54:28;18.60;62.40
61591;DHT22;71994;52.410;-1.966;2023-10-08T09:57:40;18.70;62.40
61591;DHT22;71994;52.410;-1.966;2023-10-08T10:00:47;18.60;62.50
61591;DHT22;71994;52.410;-1.966;2023-10-08T10:03:55;18.60;62.50
61591;DHT22;71994;52.410;-1.966;2023-10-08T10:07:09;18.70;62.60
61591;DHT22;71994;52.410;-1.966;2023-10-08T10:10:32;18.70;62.70
61591;DHT22;71994;52.410;-1.966;2023-10-08T10:13:42;18.70;62.70
61591;DHT22;71994;52.410;-1.966;2023-10-08T10:17:08;18.70;62.80
61591;DHT22;71994;52.410;-1.966;2023-10-08T10:20:15;18.70;62.80
61591;DHT22;71994;52.410;-1.966;2023-10-08T10:23:38;18.70;62.80
61591;DHT22;71994;52.410;-1.966;2023-10-08T10:26:49;18.70;62.80
61591;DHT22;71994;52.410;-1.966;2023-10-08T10:30:02;18.70;62.90
61591;DHT22;71994;52.410;-1.966;2023-10-08T10:33:11;18.80;62.90
61591;DHT22;71994;52.410;-1.966;2023-10-08T10:36:17;18.80;63.00
61591;DHT22;71994;52.410;-1.966;2023-10-08T10:39:26;18.80;62.90
61591;DHT22;71994;52.410;-1.966;2023-10-08T10:42:37;18.80;63.00
61591;DHT22;71994;52.410;-1.966;2023-10-08T10:45:45;18.80;63.00
61591;DHT22;71994;52.410;-1.966;2023-10-08T10:48:52;18.80;63.10
61591;DHT22;71994;52.410;-1.966;2023-10-08T10:52:22;18.80;63.00
61591;DHT22;71994;52.410;-1.966;2023-10-08T10:55:47;18.80;63.10
61591;DHT22;71994;52.410;-1.966;2023-10-08T10:59:05;18.80;63.20
61591;DHT22;71994;52.410;-1.966;2023-10-08T11:02:19;18.80;63.30
61591;DHT22;71994;52.410;-1.966;2023-10-08T11:05:24;18.80;63.30
61591;DHT22;71994;52.410;-1.966;2023-10-08T11:08:31;18.80;63.40
61591;DHT22;71994;52.410;-1.966;2023-10-08T11:11:40;18.80;63.40
61591;DHT22;71994;52.410;-1.966;2023-10-08T11:14:50;18.80;63.40
61591;DHT22;71994;52.410;-1.966;2023-10-08T11:18:00;18.80;63.50
61591;DHT22;71994;52.410;-1.966;2023-10-08T11:21:08;18.80;63.50
61591;DHT22;71994;52.410;-1.966;2023-10-08T11:24:29;18.80;63.60
61591;DHT22;71994;52.410;-1.966;2023-10-08T11:27:36;18.80;63.60
61591;DHT22;71994;52.410;-1.966;2023-10-08T11:30:45;18.80;63.60
61591;DHT22;71994;52.410;-1.966;2023-10-08T11:33:59;18.80;63.60
61591;DHT22;71994;52.410;-1.966;2023-10-08T11:37:11;18.80;63.70
61591;DHT22;71994;52.410;-1.966;2023-10-08T11:40:29;18.80;63.70
61591;DHT22;71994;52.410;-1.966;2023-10-08T11:43:55;18.80;63.70
61591;DHT22;71994;52.410;-1.966;2023-10-08T11:47:06;18.80;63.70
61591;DHT22;71994;52.410;-1.966;2023-10-08T11:50:25;18.80;63.80
61591;DHT22;71994;52.410;-1.966;2023-10-08T11:53:33;18.80;63.80
61591;DHT22;71994;52.410;-1.966;2023-10-08T11:56:40;18.90;63.80
61591;DHT22;71994;52.410;-1.966;2023-10-08T11:59:47;18.90;63.80
61591;DHT22;71994;52.410;-1.966;2023-10-08T12:02:58;18.90;63.90
61591;DHT22;71994;52.410;-1.966;2023-10-08T12:06:05;18.90;63.90
61591;DHT22;71994;52.410;-1.966;2023-10-08T12:09:11;18.90;64.00
61591;DHT22;71994;52.410;-1.966;2023-10-08T12:12:17;18.90;64.00
61591;DHT22;71994;52.410;-1.966;2023-10-08T12:15:26;18.90;64.10
61591;DHT22;71994;52.410;-1.966;2023-10-08T12:18:47;18.90;64.00
61591;DHT22;71994;52.410;-1.966;2023-10-08T12:22:01;18.90;64.10
61591;DHT22;71994;52.410;-1.966;2023-10-08T12:25:10;18.90;64.20
61591;DHT22;71994;52.410;-1.966;2023-10-08T12:28:17;18.90;64.20
61591;DHT22;71994;52.410;-1.966;2023-10-08T12:31:23;18.90;64.30
61591;DHT22;71994;52.410;-1.966;2023-10-08T12:34:34;18.90;64.30
61591;DHT22;71994;52.410;-1.966;2023-10-08T12:37:41;18.90;64.40
61591;DHT22;71994;52.410;-1.966;2023-10-08T12:40:47;18.90;64.40
61591;DHT22;71994;52.410;-1.966;2023-10-08T12:43:56;18.90;64.50
61591;DHT22;71994;52.410;-1.966;2023-10-08T12:47:02;19.00;64.50
61591;DHT22;71994;52.410;-1.966;2023-10-08T12:50:11;18.90;64.50
61591;DHT22;71994;52.410;-1.966;2023-10-08T12:53:19;18.90;64.60
61591;DHT22;71994;52.410;-1.966;2023-10-08T12:56:27;19.00;64.50
61591;DHT22;71994;52.410;-1.966;2023-10-08T12:59:42;18.90;64.70
61591;DHT22;71994;52.410;-1.966;2023-10-08T13:02:54;18.90;64.80
61591;DHT22;71994;52.410;-1.966;2023-10-08T13:06:04;18.90;64.80
61591;DHT22;71994;52.410;-1.966;2023-10-08T13:09:14;18.90;64.90
61591;DHT22;71994;52.410;-1.966;2023-10-08T13:12:20;19.00;65.00
61591;DHT22;71994;52.410;-1.966;2023-10-08T13:15:26;19.00;64.90
61591;DHT22;71994;52.410;-1.966;2023-10-08T13:18:38;19.00;64.80
61591;DHT22;71994;52.410;-1.966;2023-10-08T13:21:49;19.10;64.80
61591;DHT22;71994;52.410;-1.966;2023-10-08T13:24:56;19.10;64.80
61591;DHT22;71994;52.410;-1.966;2023-10-08T13:28:02;19.10;64.90
61591;DHT22;71994;52.410;-1.966;2023-10-08T13:31:10;19.10;64.90
61591;DHT22;71994;52.410;-1.966;2023-10-08T13:34:19;19.10;64.90
61591;DHT22;71994;52.410;-1.966;2023-10-08T13:37:28;19.10;64.90
61591;DHT22;71994;52.410;-1.966;2023-10-08T13:40:34;19.10;64.90
61591;DHT22;71994;52.410;-1.966;2023-10-08T13:43:47;19.10;64.90
61591;DHT22;71994;52.410;-1.966;2023-10-08T13:46:54;19.10;64.90
61591;DHT22;71994;52.410;-1.966;2023-10-08T13:50:03;19.20;65.10
61591;DHT22;71994;52.410;-1.966;2023-10-08T13:53:16;19.10;65.20
61591;DHT22;71994;52.410;-1.966;2023-10-08T13:56:23;19.10;65.30
61591;DHT22;71994;52.410;-1.966;2023-10-08T13:59:30;19.10;65.40
61591;DHT22;71994;52.410;-1.966;2023-10-08T14:02:36;19.10;65.50
61591;DHT22;71994;52.410;-1.966;2023-10-08T14:05:43;19.10;65.50
61591;DHT22;71994;52.410;-1.966;2023-10-08T14:08:55;19.10;65.50
61591;DHT22;71994;52.410;-1.966;2023-10-08T14:12:04;19.10;65.50
61591;DHT22;71994;52.410;-1.966;2023-10-08T14:15:10;19.10;65.60
61591;DHT22;71994;52.410;-1.966;2023-10-08T14:18:18;19.10;65.60
61591;DHT22;71994;52.410;-1.966;2023-10-08T14:21:29;19.10;65.60
61591;DHT22;71994;52.410;-1.966;2023-10-08T14:24:44;19.10;65.60
61591;DHT22;71994;52.410;-1.966;2023-10-08T14:27:51;19.10;65.60
61591;DHT22;71994;52.410;-1.966;2023-10-08T14:31:07;19.10;65.60
61591;DHT22;71994;52.410;-1.966;2023-10-08T14:34:18;19.10;65.70
61591;DHT22;71994;52.410;-1.966;2023-10-08T14:37:47;19.10;65.70
61591;DHT22;71994;52.410;-1.966;2023-10-08T14:41:11;19.10;65.70
61591;DHT22;71994;52.410;-1.966;2023-10-08T14:44:33;19.10;65.70
61591;DHT22;71994;52.410;-1.966;2023-10-08T14:47:40;19.10;65.70
61591;DHT22;71994;52.410;-1.966;2023-10-08T14:50:48;19.10;65.80
61591;DHT22;71994;52.410;-1.966;2023-10-08T14:53:54;19.10;65.80
61591;DHT22;71994;52.410;-1.966;2023-10-08T14:57:04;19.10;65.80
61591;DHT22;71994;52.410;-1.966;2023-10-08T15:00:10;19.10;65.80
61591;DHT22;71994;52.410;-1.966;2023-10-08T15:03:17;19.10;65.80
61591;DHT22;71994;52.410;-1.966;2023-10-08T15:06:24;19.10;65.80
61591;DHT22;71994;52.410;-1.966;2023-10-08T15:09:30;19.10;65.80
61591;DHT22;71994;52.410;-1.966;2023-10-08T15:12:39;19.10;65.90
61591;DHT22;71994;52.410;-1.966;2023-10-08T15:15:45;19.10;65.90
61591;DHT22;71994;52.410;-1.966;2023-10-08T15:18:53;19.00;65.90
61591;DHT22;71994;52.410;-1.966;2023-10-08T15:21:59;19.10;66.00
61591;DHT22;71994;52.410;-1.966;2023-10-08T15:25:09;19.10;66.00
61591;DHT22;71994;52.410;-1.966;2023-10-08T15:28:19;19.10;66.10
61591;DHT22;71994;52.410;-1.966;2023-10-08T15:31:25;19.10;66.10
61591;DHT22;71994;52.410;-1.966;2023-10-08T15:34:31;19.10;66.20
61591;DHT22;71994;52.410;-1.966;2023-10-08T15:37:38;19.10;66.20
61591;DHT22;71994;52.410;-1.966;2023-10-08T15:40:45;19.10;66.10
61591;DHT22;71994;52.410;-1.966;2023-10-08T15:43:55;19.10;66.10
61591;DHT22;71994;52.410;-1.966;2023-10-08T15:47:01;19.10;66.00
61591;DHT22;71994;52.410;-1.966;2023-10-08T15:50:08;19.10;65.90
61591;DHT22;71994;52.410;-1.966;2023-10-08T15:53:15;19.10;66.00
61591;DHT22;71994;52.410;-1.966;2023-10-08T15:56:21;19.10;66.20
61591;DHT22;71994;52.410;-1.966;2023-10-08T15:59:32;19.10;66.30
61591;DHT22;71994;52.410;-1.966;2023-10-08T16:02:40;19.10;66.40
61591;DHT22;71994;52.410;-1.966;2023-10-08T16:05:47;19.10;66.40
61591;DHT22;71994;52.410;-1.966;2023-10-08T16:08:53;19.10;66.40
61591;DHT22;71994;52.410;-1.966;2023-10-08T16:12:00;19.10;66.40
61591;DHT22;71994;52.410;-1.966;2023-10-08T16:15:10;19.10;66.50
61591;DHT22;71994;52.410;-1.966;2023-10-08T16:18:16;19.10;66.50
61591;DHT22;71994;52.410;-1.966;2023-10-08T16:21:23;19.10;66.40
61591;DHT22;71994;52.410;-1.966;2023-10-08T16:24:30;19.10;66.30
61591;DHT22;71994;52.410;-1.966;2023-10-08T16:27:37;19.20;66.20
61591;DHT22;71994;52.410;-1.966;2023-10-08T16:30:50;19.20;66.30
61591;DHT22;71994;52.410;-1.966;2023-10-08T16:33:57;19.20;66.20
61591;DHT22;71994;52.410;-1.966;2023-10-08T16:37:03;19.10;66.40
61591;DHT22;71994;52.410;-1.966;2023-10-08T16:40:10;19.20;66.60
61591;DHT22;71994;52.410;-1.966;2023-10-08T16:43:17;19.20;66.30
61591;DHT22;71994;52.410;-1.966;2023-10-08T16:46:26;19.20;66.50
61591;DHT22;71994;52.410;-1.966;2023-10-08T16:49:32;19.20;66.70
61591;DHT22;71994;52.410;-1.966;2023-10-08T16:52:38;19.20;66.80
61591;DHT22;71994;52.410;-1.966;2023-10-08T16:55:45;19.20;66.90
61591;DHT22;71994;52.410;-1.966;2023-10-08T16:58:53;19.20;66.90
61591;DHT22;71994;52.410;-1.966;2023-10-08T17:02:02;19.20;66.90
61591;DHT22;71994;52.410;-1.966;2023-10-08T17:05:08;19.30;67.00
61591;DHT22;71994;52.410;-1.966;2023-10-08T17:08:17;19.20;66.90
61591;DHT22;71994;52.410;-1.966;2023-10-08T17:11:23;19.20;67.00
61591;DHT22;71994;52.410;-1.966;2023-10-08T17:14:30;19.20;67.10
61591;DHT22;71994;52.410;-1.966;2023-10-08T17:17:39;19.20;67.10
61591;DHT22;71994;52.410;-1.966;2023-10-08T17:20:46;19.20;67.10
61591;DHT22;71994;52.410;-1.966;2023-10-08T17:23:52;19.20;67.10
61591;DHT22;71994;52.410;-1.966;2023-10-08T17:26:58;19.20;67.20
61591;DHT22;71994;52.410;-1.966;2023-10-08T17:30:07;19.10;67.20
61591;DHT22;71994;52.410;-1.966;2023-10-08T17:33:19;19.20;67.20
61591;DHT22;71994;52.410;-1.966;2023-10-08T17:36:25;19.20;67.20
61591;DHT22;71994;52.410;-1.966;2023-10-08T17:39:32;19.10;67.20
61591;DHT22;71994;52.410;-1.966;2023-10-08T17:42:39;19.10;67.30
61591;DHT22;71994;52.410;-1.966;2023-10-08T17:45:45;19.10;67.40
61591;DHT22;71994;52.410;-1.966;2023-10-08T17:48:54;19.10;67.30
61591;DHT22;71994;52.410;-1.966;2023-10-08T17:52:00;19.10;67.30
61591;DHT22;71994;52.410;-1.966;2023-10-08T17:55:08;19.10;67.10
61591;DHT22;71994;52.410;-1.966;2023-10-08T17:58:16;19.20;67.00
61591;DHT22;71994;52.410;-1.966;2023-10-08T18:01:29;19.30;67.00
61591;DHT22;71994;52.410;-1.966;2023-10-08T18:04:39;19.30;67.00
61591;DHT22;71994;52.410;-1.966;2023-10-08T18:07:46;19.40;66.80
61591;DHT22;71994;52.410;-1.966;2023-10-08T18:10:55;19.40;67.00
61591;DHT22;71994;52.410;-1.966;2023-10-08T18:14:04;19.40;67.00
61591;DHT22;71994;52.410;-1.966;2023-10-08T18:17:14;19.40;66.90
61591;DHT22;71994;52.410;-1.966;2023-10-08T18:20:23;19.40;66.90
61591;DHT22;71994;52.410;-1.966;2023-10-08T18:23:37;19.40;67.00
61591;DHT22;71994;52.410;-1.966;2023-10-08T18:26:44;19.40;67.00
61591;DHT22;71994;52.410;-1.966;2023-10-08T18:29:51;19.40;67.10
61591;DHT22;71994;52.410;-1.966;2023-10-08T18:32:57;19.30;67.30
61591;DHT22;71994;52.410;-1.966;2023-10-08T18:36:08;19.30;67.40
61591;DHT22;71994;52.410;-1.966;2023-10-08T18:39:15;19.30;67.50
61591;DHT22;71994;52.410;-1.966;2023-10-08T18:42:22;19.30;67.60
61591;DHT22;71994;52.410;-1.966;2023-10-08T18:45:32;19.30;67.50
61591;DHT22;71994;52.410;-1.966;2023-10-08T18:48:40;19.30;67.50
61591;DHT22;71994;52.410;-1.966;2023-10-08T18:51:50;19.30;67.50
61591;DHT22;71994;52.410;-1.966;2023-10-08T18:54:56;19.30;67.50
61591;DHT22;71994;52.410;-1.966;2023-10-08T18:58:02;19.20;67.60
61591;DHT22;71994;52.410;-1.966;2023-10-08T19:01:09;19.20;67.60
61591;DHT22;71994;52.410;-1.966;2023-10-08T19:04:15;19.20;67.70
61591;DHT22;71994;52.410;-1.966;2023-10-08T19:07:24;19.20;67.70
61591;DHT22;71994;52.410;-1.966;2023-10-08T19:10:31;19.20;67.70
61591;DHT22;71994;52.410;-1.966;2023-10-08T19:13:38;19.20;67.80
61591;DHT22;71994;52.410;-1.966;2023-10-08T19:16:44;19.20;67.80
61591;DHT22;71994;52.410;-1.966;2023-10-08T19:19:53;19.20;67.70
61591;DHT22;71994;52.410;-1.966;2023-10-08T19:23:05;19.10;67.70
61591;DHT22;71994;52.410;-1.966;2023-10-08T19:26:11;19.20;67.70
61591;DHT22;71994;52.410;-1.966;2023-10-08T19:36:33;19.20;67.80
61591;DHT22;71994;52.410;-1.966;2023-10-08T19:40:03;19.20;67.80
61591;DHT22;71994;52.410;-1.966;2023-10-08T19:43:42;19.10;67.80
61591;DHT22;71994;52.410;-1.966;2023-10-08T19:46:57;19.10;67.70
61591;DHT22;71994;52.410;-1.966;2023-10-08T19:50:30;19.10;67.80